Time;durP1;ratioP1;P1;durP2;ratioP2;P2;SDS_P1;SDS_P2;PMS_P1;PMS_P2;Temp;Humidity;BMP_temperature;BMP_pressure;BME280_temperature;BME280_humidity;BME280_pressure;Samples;Min_cycle;Max_cycle;Signal;HPM_P1;HPM_P2
2021/11/23 00:00:39;;;;;;;9.88;5.90;;;;;;;-2.19;89.64;98363.72;5017147;28;20045;-57
2021/11/23 00:03:06;;;;;;;10.13;4.93;;;;;;;-2.29;89.28;98367.25;5022519;28;20049;-55
2021/11/23 00:05:33;;;;;;;9.02;4.53;;;;;;;-2.44;88.99;98369.53;5025962;28;20046;-57
2021/11/23 00:08:00;;;;;;;8.82;5.15;;;;;;;-2.49;89.79;98364.66;5015676;28;20041;-55
2021/11/23 00:10:26;;;;;;;11.10;6.03;;;;;;;-2.45;90.00;98375.81;5006937;28;20960;-57
2021/11/23 00:12:53;;;;;;;8.00;4.07;;;;;;;-2.48;89.71;98373.44;5015159;28;20052;-58
2021/11/23 00:15:34;;;;;;;8.43;4.60;;;;;;;-2.53;89.57;98375.69;5006589;28;20037;-58
2021/11/23 00:18:05;;;;;;;7.88;3.95;;;;;;;-2.49;89.95;98375.28;5022669;28;20747;-58
2021/11/23 00:20:33;;;;;;;7.35;4.20;;;;;;;-2.61;89.44;98379.06;5013510;28;20564;-58
2021/11/23 00:23:00;;;;;;;9.68;5.00;;;;;;;-2.61;90.01;98384.38;5024112;28;20052;-57
2021/11/23 00:25:28;;;;;;;9.60;4.65;;;;;;;-2.63;90.07;98383.66;5025733;28;20041;-58
2021/11/23 00:27:56;;;;;;;6.40;4.05;;;;;;;-2.59;90.17;98382.41;5025655;28;20091;-57
2021/11/23 00:30:25;;;;;;;7.60;4.28;;;;;;;-2.63;89.86;98375.72;5012912;28;20052;-54
2021/11/23 00:32:54;;;;;;;8.63;4.90;;;;;;;-2.26;89.67;98374.06;5017098;28;20386;-57
2021/11/23 00:35:21;;;;;;;10.65;5.25;;;;;;;-2.01;88.62;98374.41;5015646;28;20417;-57
2021/11/23 00:37:50;;;;;;;9.25;4.32;;;;;;;-2.17;87.25;98378.53;5025839;28;20118;-58
2021/11/23 00:40:18;;;;;;;8.18;4.30;;;;;;;-2.28;87.60;98368.09;5014395;28;20075;-57
2021/11/23 00:42:45;;;;;;;6.05;3.55;;;;;;;-2.20;88.33;98370.00;5025838;28;20053;-58
2021/11/23 00:45:12;;;;;;;11.18;5.38;;;;;;;-2.12;88.17;98372.78;5023461;28;20041;-58
2021/11/23 00:47:40;;;;;;;9.40;5.53;;;;;;;-1.93;87.47;98368.34;5026897;28;20052;-56
2021/11/23 00:50:08;;;;;;;8.20;4.78;;;;;;;-2.35;87.46;98379.28;5030239;28;20559;-56
2021/11/23 00:52:36;;;;;;;8.63;4.18;;;;;;;-2.57;87.71;98382.25;5029013;28;20591;-55
2021/11/23 00:55:05;;;;;;;9.07;5.30;;;;;;;-2.78;88.57;98384.13;5018882;28;20049;-53
2021/11/23 00:57:31;;;;;;;10.02;5.38;;;;;;;-2.89;89.04;98389.56;5026470;28;20049;-54
2021/11/23 00:59:58;;;;;;;9.55;5.22;;;;;;;-2.97;89.30;98386.75;5022407;28;20055;-57
2021/11/23 01:02:25;;;;;;;10.40;5.85;;;;;;;-3.16;90.04;98394.56;5027772;28;20048;-57
2021/11/23 01:04:51;;;;;;;8.57;5.30;;;;;;;-3.24;90.37;98393.59;5023966;28;20053;-57
2021/11/23 01:07:18;;;;;;;9.98;4.93;;;;;;;-3.35;89.77;98382.16;5028698;28;20034;-58
2021/11/23 01:09:45;;;;;;;9.05;5.07;;;;;;;-3.45;90.07;98392.75;5017706;28;20053;-58
2021/11/23 01:12:11;;;;;;;7.72;4.22;;;;;;;-3.44;89.91;98390.91;5027437;28;20100;-58
2021/11/23 01:14:38;;;;;;;12.45;6.03;;;;;;;-3.45;90.77;98394.53;5028618;28;20080;-58
2021/11/23 01:17:05;;;;;;;14.57;7.13;;;;;;;-3.25;91.39;98397.22;5012177;28;20046;-58
2021/11/23 01:19:31;;;;;;;7.75;4.57;;;;;;;-3.29;90.59;98397.50;5011391;28;20053;-58
2021/11/23 01:21:58;;;;;;;9.68;5.57;;;;;;;-3.11;91.26;98393.31;5029684;28;20045;-54
2021/11/23 01:24:25;;;;;;;10.75;5.82;;;;;;;-3.18;89.92;98395.69;5022023;28;20527;-58
2021/11/23 01:26:52;;;;;;;8.80;4.35;;;;;;;-3.40;89.14;98398.47;5026987;28;20504;-55
2021/11/23 01:29:19;;;;;;;7.30;4.53;;;;;;;-3.44;89.75;98404.16;5028339;28;20052;-57
2021/11/23 01:31:45;;;;;;;10.07;5.35;;;;;;;-3.33;90.84;98408.50;5028055;28;20045;-55
2021/11/23 01:34:12;;;;;;;9.88;5.25;;;;;;;-3.42;89.97;98407.53;5021091;28;20042;-56
2021/11/23 01:36:38;;;;;;;10.20;5.22;;;;;;;-3.37;90.26;98407.09;5018600;28;20119;-56
2021/11/23 01:39:05;;;;;;;8.82;5.45;;;;;;;-3.34;90.51;98405.03;5021328;28;20054;-57
2021/11/23 01:41:31;;;;;;;10.07;5.22;;;;;;;-2.84;90.83;98405.06;5009401;28;20104;-56
2021/11/23 01:43:58;;;;;;;8.70;4.78;;;;;;;-3.50;87.98;98408.22;5014379;28;20431;-56
2021/11/23 01:46:25;;;;;;;8.77;5.00;;;;;;;-3.61;89.25;98414.44;5020022;28;20103;-53
2021/11/23 01:48:51;;;;;;;10.48;6.10;;;;;;;-3.45;90.65;98410.44;5013885;28;20045;-58
2021/11/23 01:51:18;;;;;;;10.68;6.28;;;;;;;-3.58;90.10;98414.16;5027853;28;20041;-55
2021/11/23 01:53:45;;;;;;;9.32;5.97;;;;;;;-3.75;90.26;98414.81;5024686;28;20124;-58
2021/11/23 01:56:12;;;;;;;8.95;5.43;;;;;;;-3.72;91.01;98406.59;5020338;28;20441;-58
2021/11/23 01:58:39;;;;;;;13.23;6.30;;;;;;;-3.64;91.05;98408.56;5025759;28;20045;-58
2021/11/23 02:01:07;;;;;;;13.65;7.80;;;;;;;-3.62;90.33;98404.81;5022469;28;20041;-58
2021/11/23 02:03:38;;;;;;;10.23;5.57;;;;;;;-3.79;89.98;98414.25;5020007;28;20124;-58
2021/11/23 02:06:06;;;;;;;9.85;5.40;;;;;;;-3.73;90.78;98411.06;5028106;28;20072;-58
2021/11/23 02:08:33;;;;;;;10.75;6.15;;;;;;;-3.72;90.35;98411.91;5026599;28;20051;-58
2021/11/23 02:10:59;;;;;;;12.45;5.78;;;;;;;-3.84;90.17;98416.47;5028583;28;20452;-58
2021/11/23 02:13:29;;;;;;;10.18;5.55;;;;;;;-3.85;89.71;98417.41;5020639;28;20064;-57
2021/11/23 02:15:57;;;;;;;11.23;5.53;;;;;;;-3.72;91.06;98412.72;5028149;28;20053;-58
2021/11/23 02:18:26;;;;;;;10.75;6.25;;;;;;;-3.75;90.61;98409.53;5018032;28;20049;-58
2021/11/23 02:20:54;;;;;;;10.43;6.57;;;;;;;-3.90;89.90;98409.06;5026107;28;20577;-58
2021/11/23 02:23:21;;;;;;;10.18;4.93;;;;;;;-4.02;89.44;98405.66;5019466;28;20049;-58
2021/11/23 02:25:48;;;;;;;9.30;5.45;;;;;;;-3.96;90.69;98405.13;5022798;28;20049;-58
2021/11/23 02:28:15;;;;;;;10.13;6.20;;;;;;;-3.93;90.67;98399.56;5017959;28;20042;-58
2021/11/23 02:30:48;;;;;;;11.68;6.18;;;;;;;-4.02;90.27;98401.19;5027026;28;20057;-58
2021/11/23 02:33:18;;;;;;;12.38;5.68;;;;;;;-4.09;90.55;98397.44;5026229;28;20056;-58
2021/11/23 02:35:46;;;;;;;16.55;9.20;;;;;;;-4.00;90.80;98398.41;5027709;28;20045;-57
2021/11/23 02:38:16;;;;;;;20.45;10.73;;;;;;;-3.98;90.52;98399.16;5011196;28;20038;-58
2021/11/23 02:40:43;;;;;;;33.00;17.25;;;;;;;-3.88;89.55;98409.78;5008382;28;20041;-55
2021/11/23 02:43:10;;;;;;;17.33;9.32;;;;;;;-4.00;89.59;98411.66;5019115;28;20051;-56
2021/11/23 02:45:36;;;;;;;11.80;6.70;;;;;;;-4.11;89.81;98407.28;5029047;28;20046;-60
2021/11/23 02:48:07;;;;;;;16.77;10.02;;;;;;;-4.20;90.61;98412.41;5036137;28;20112;-58
2021/11/23 02:50:34;;;;;;;11.35;6.03;;;;;;;-4.19;90.17;98406.16;5025673;28;20051;-59
2021/11/23 02:53:00;;;;;;;10.68;6.82;;;;;;;-4.24;89.36;98415.47;5018046;28;20079;-58
2021/11/23 02:55:31;;;;;;;10.32;6.40;;;;;;;-4.38;89.84;98417.47;5026921;28;20528;-58
2021/11/23 02:57:58;;;;;;;10.23;5.28;;;;;;;-4.43;90.29;98427.56;5024792;28;20045;-58
2021/11/23 03:00:27;;;;;;;12.85;6.47;;;;;;;-4.40;90.31;98422.03;5022221;28;20099;-58
2021/11/23 03:02:54;;;;;;;8.57;5.43;;;;;;;-4.37;90.51;98415.66;5023061;28;20058;-58
2021/11/23 03:05:23;;;;;;;10.95;5.68;;;;;;;-4.48;89.31;98428.00;5024198;28;20048;-58
2021/11/23 03:07:52;;;;;;;11.07;5.03;;;;;;;-4.63;89.59;98416.91;5019187;28;20424;-58
2021/11/23 03:10:24;;;;;;;12.27;5.40;;;;;;;-4.55;90.57;98415.41;5017531;28;20048;-58
2021/11/23 03:12:52;;;;;;;9.82;5.20;;;;;;;-4.46;90.58;98419.94;5023195;28;20049;-58
2021/11/23 03:15:19;;;;;;;10.27;5.20;;;;;;;-4.44;90.29;98412.69;5026420;28;20057;-58
2021/11/23 03:17:46;;;;;;;14.82;6.28;;;;;;;-4.58;89.22;98427.06;5013189;28;20412;-58
2021/11/23 03:20:16;;;;;;;9.43;4.80;;;;;;;-4.75;89.31;98420.56;5024432;28;20512;-58
2021/11/23 03:22:44;;;;;;;11.40;5.18;;;;;;;-4.61;90.83;98420.25;5026576;28;20076;-58
2021/11/23 03:25:11;;;;;;;8.02;4.75;;;;;;;-4.63;89.85;98413.41;5025527;28;20076;-58
2021/11/23 03:27:37;;;;;;;10.23;4.85;;;;;;;-4.80;89.88;98417.47;5012263;28;20046;-58
2021/11/23 03:30:07;;;;;;;10.75;5.55;;;;;;;-4.81;90.50;98413.97;5006904;28;20054;-58
2021/11/23 03:32:35;;;;;;;10.70;6.03;;;;;;;-4.79;90.79;98413.84;5019261;28;20049;-58
2021/11/23 03:35:03;;;;;;;9.05;5.13;;;;;;;-4.72;90.59;98421.13;5021105;28;20064;-58
2021/11/23 03:37:30;;;;;;;12.02;6.10;;;;;;;-4.60;90.29;98415.81;5017535;28;20099;-58
2021/11/23 03:39:57;;;;;;;12.38;6.13;;;;;;;-4.54;89.81;98412.63;5020833;28;20037;-58
2021/11/23 03:42:24;;;;;;;12.10;6.53;;;;;;;-4.72;89.82;98412.38;5006657;28;20057;-58
2021/11/23 03:44:57;;;;;;;9.70;5.40;;;;;;;-4.76;90.82;98421.53;5023882;28;20042;-57
2021/11/23 03:47:26;;;;;;;10.27;5.28;;;;;;;-4.81;89.70;98413.97;5019863;28;20033;-58
2021/11/23 03:49:53;;;;;;;13.02;6.95;;;;;;;-4.61;89.97;98409.66;5024306;28;20049;-57
2021/11/23 03:52:20;;;;;;;9.85;5.25;;;;;;;-4.64;89.38;98417.84;5006644;28;20065;-58
2021/11/23 03:54:46;;;;;;;11.43;6.13;;;;;;;-4.73;88.99;98414.19;5010103;28;20061;-58
2021/11/23 03:57:13;;;;;;;13.35;6.82;;;;;;;-4.51;89.47;98414.16;5017117;28;20038;-58
2021/11/23 03:59:39;;;;;;;14.73;5.78;;;;;;;-4.52;89.06;98420.44;5016925;28;20045;-57
2021/11/23 04:02:06;;;;;;;10.23;5.45;;;;;;;-4.60;89.14;98418.44;5020804;28;20053;-59
2021/11/23 04:04:33;;;;;;;9.95;5.60;;;;;;;-4.79;87.59;98416.50;5016835;28;20128;-58
2021/11/23 04:07:00;;;;;;;9.85;5.00;;;;;;;-5.00;88.66;98414.66;5025533;28;20247;-58
2021/11/23 04:09:26;;;;;;;9.05;5.18;;;;;;;-5.13;89.46;98425.38;5023420;28;20646;-58
2021/11/23 04:11:53;;;;;;;13.65;6.60;;;;;;;-5.09;89.35;98421.53;5025908;28;20054;-57
2021/11/23 04:14:20;;;;;;;10.75;5.32;;;;;;;-5.07;89.47;98416.97;5006988;28;20033;-58
2021/11/23 04:16:46;;;;;;;10.02;6.20;;;;;;;-4.96;89.88;98416.09;5015959;28;20115;-58
2021/11/23 04:19:14;;;;;;;13.55;7.40;;;;;;;-4.96;89.99;98416.09;5026226;28;20053;-57
2021/11/23 04:21:40;;;;;;;12.80;6.70;;;;;;;-4.84;90.11;98412.44;5024916;28;20559;-58
2021/11/23 04:24:07;;;;;;;12.30;6.57;;;;;;;-5.01;89.65;98413.81;5025552;28;20041;-54
2021/11/23 04:26:34;;;;;;;12.95;6.70;;;;;;;-4.90;90.30;98415.56;5020847;28;20049;-57
2021/11/23 04:29:01;;;;;;;11.40;5.50;;;;;;;-4.88;90.16;98415.44;5025634;28;20103;-57
2021/11/23 04:31:27;;;;;;;13.63;6.32;;;;;;;-5.01;88.58;98416.47;5010635;28;20045;-57
2021/11/23 04:33:54;;;;;;;12.35;5.93;;;;;;;-5.21;88.58;98412.81;5024226;28;20049;-58
2021/11/23 04:36:20;;;;;;;8.80;5.43;;;;;;;-5.22;89.09;98424.34;5021555;28;20056;-55
2021/11/23 04:38:47;;;;;;;11.50;5.78;;;;;;;-5.15;89.94;98420.25;5009437;28;20041;-56
2021/11/23 04:41:14;;;;;;;11.60;5.45;;;;;;;-5.03;90.03;98421.03;5022171;28;20559;-58
2021/11/23 04:43:40;;;;;;;10.48;5.25;;;;;;;-5.10;88.02;98423.34;5016367;28;20099;-58
2021/11/23 04:46:07;;;;;;;10.93;5.10;;;;;;;-5.21;88.74;98423.38;5013095;28;20042;-58
2021/11/23 04:48:33;;;;;;;9.88;5.05;;;;;;;-5.04;88.42;98414.09;5023897;28;20042;-58
2021/11/23 04:51:01;;;;;;;10.02;5.32;;;;;;;-5.21;88.90;98423.38;5007850;28;20591;-55
2021/11/23 04:53:28;;;;;;;9.52;5.00;;;;;;;-5.25;89.06;98429.88;5008010;28;20095;-58
2021/11/23 04:55:54;;;;;;;12.43;5.78;;;;;;;-5.39;89.43;98433.63;5020434;28;20038;-58
2021/11/23 04:58:21;;;;;;;12.93;6.28;;;;;;;-5.31;89.70;98428.56;5010992;28;20041;-58
2021/11/23 05:00:47;;;;;;;13.95;8.18;;;;;;;-5.17;89.32;98432.72;5024953;28;20095;-58
2021/11/23 05:03:14;;;;;;;11.05;5.90;;;;;;;-5.23;88.73;98431.44;5022514;28;20042;-58
2021/11/23 05:05:40;;;;;;;10.18;5.72;;;;;;;-5.24;89.51;98426.25;5020706;28;20103;-57
2021/11/23 05:08:07;;;;;;;14.18;6.57;;;;;;;-5.06;91.05;98431.03;5020588;28;20034;-59
2021/11/23 05:10:33;;;;;;;15.23;7.55;;;;;;;-5.13;89.43;98436.81;5014745;28;20042;-55
2021/11/23 05:13:00;;;;;;;14.15;7.30;;;;;;;-5.18;89.59;98436.34;5017155;28;20046;-59
2021/11/23 05:15:26;;;;;;;10.98;6.65;;;;;;;-5.18;89.28;98436.34;5025349;28;20659;-57
2021/11/23 05:17:53;;;;;;;11.88;5.65;;;;;;;-5.21;89.11;98439.22;5024750;28;20045;-58
2021/11/23 05:20:19;;;;;;;11.90;5.88;;;;;;;-5.24;89.30;98442.97;5022094;28;20048;-57
2021/11/23 05:22:46;;;;;;;10.15;6.03;;;;;;;-5.35;88.77;98443.81;5023788;28;20045;-58
2021/11/23 05:25:13;;;;;;;12.55;5.88;;;;;;;-5.25;89.63;98443.06;5023627;28;20072;-57
2021/11/23 05:27:41;;;;;;;13.75;7.03;;;;;;;-5.24;89.42;98448.25;5024853;28;20136;-59
2021/11/23 05:30:09;;;;;;;13.77;5.78;;;;;;;-5.41;89.01;98448.75;5020269;28;20045;-59
2021/11/23 05:32:36;;;;;;;10.45;5.45;;;;;;;-5.42;88.87;98450.56;5025492;28;20041;-58
2021/11/23 05:35:03;;;;;;;13.25;6.72;;;;;;;-5.29;90.08;98455.69;5026200;28;20046;-59
2021/11/23 05:37:30;;;;;;;12.02;6.43;;;;;;;-5.35;89.34;98448.25;5009267;28;20081;-58
2021/11/23 05:39:57;;;;;;;14.20;6.75;;;;;;;-5.38;89.17;98444.06;5024071;28;20053;-59
2021/11/23 05:42:23;;;;;;;13.98;7.15;;;;;;;-5.38;89.44;98438.78;5022870;28;20049;-58
2021/11/23 05:44:50;;;;;;;14.43;7.88;;;;;;;-5.48;88.78;98443.97;5020500;28;20496;-59
2021/11/23 05:47:16;;;;;;;10.75;6.55;;;;;;;-5.73;89.05;98447.72;5019821;28;20463;-57
2021/11/23 05:49:43;;;;;;;9.05;5.60;;;;;;;-5.70;89.71;98447.50;5026171;28;20049;-58
2021/11/23 05:52:10;;;;;;;13.07;6.28;;;;;;;-5.60;90.12;98447.59;5022357;28;20647;-59
2021/11/23 05:54:37;;;;;;;15.65;7.38;;;;;;;-5.61;89.22;98446.75;5018433;28;20496;-59
2021/11/23 05:57:04;;;;;;;11.55;6.45;;;;;;;-5.61;89.29;98454.66;5018396;28;20040;-59
2021/11/23 05:59:30;;;;;;;15.10;7.35;;;;;;;-5.45;89.26;98456.09;5022492;28;20504;-59
2021/11/23 06:01:58;;;;;;;19.02;8.93;;;;;;;-5.46;90.11;98459.69;5019498;28;20444;-60
2021/11/23 06:04:25;;;;;;;13.57;7.65;;;;;;;-5.45;89.77;98449.97;5016694;28;20627;-59
2021/11/23 06:06:52;;;;;;;12.35;7.05;;;;;;;-5.50;89.78;98450.31;5021274;28;20139;-59
2021/11/23 06:09:19;;;;;;;15.65;7.80;;;;;;;-5.44;89.88;98454.28;5019169;28;20056;-60
2021/11/23 06:11:45;;;;;;;14.52;7.85;;;;;;;-5.35;90.32;98458.81;5023719;28;20796;-57
2021/11/23 06:14:12;;;;;;;12.80;6.78;;;;;;;-5.35;89.36;98451.75;5024036;28;20526;-58
2021/11/23 06:16:44;;;;;;;13.30;7.22;;;;;;;-5.52;87.98;98452.25;5025049;28;20584;-59
2021/11/23 06:19:10;;;;;;;;;;;;;;;-5.49;89.88;98455.47;5018326;28;20068;-58
2021/11/23 06:21:37;;;;;;;10.05;5.78;;;;;;;-5.52;88.57;98449.63;5022528;28;20003;-60
2021/11/23 06:24:04;;;;;;;11.20;6.90;;;;;;;-5.55;88.78;98458.63;5023324;28;20107;-60
2021/11/23 06:26:32;;;;;;;16.02;7.97;;;;;;;-5.64;89.31;98457.53;5022150;28;20483;-60
2021/11/23 06:28:59;;;;;;;13.68;8.18;;;;;;;-5.64;90.00;98462.81;5021988;28;20099;-61
2021/11/23 06:31:25;;;;;;;11.77;7.00;;;;;;;-5.62;88.51;98466.19;5019438;28;20049;-60
2021/11/23 06:33:54;;;;;;;14.13;7.75;;;;;;;-5.59;89.26;98469.53;5024875;28;20107;-60
2021/11/23 06:36:22;;;;;;;13.68;8.32;;;;;;;-5.81;88.96;98471.22;5024495;28;20048;-60
2021/11/23 06:38:51;;;;;;;16.98;8.85;;;;;;;-5.35;89.91;98472.00;5018811;28;20496;-60
2021/11/23 06:41:18;;;;;;;17.38;8.73;;;;;;;-5.43;87.49;98475.28;5017683;28;20576;-60
2021/11/23 06:43:45;;;;;;;12.80;7.40;;;;;;;-5.52;87.55;98489.22;5020029;28;20053;-60
2021/11/23 06:46:12;;;;;;;15.88;7.70;;;;;;;-5.59;88.07;98490.66;5020205;28;20514;-60
2021/11/23 06:48:38;;;;;;;12.45;6.95;;;;;;;-5.64;88.34;98497.13;5023590;28;20524;-60
2021/11/23 06:51:05;;;;;;;17.63;8.07;;;;;;;-5.62;89.42;98492.59;5024738;28;20045;-59
2021/11/23 06:53:32;;;;;;;15.32;8.13;;;;;;;-5.53;89.71;98503.38;5025000;28;20722;-60
2021/11/23 06:55:58;;;;;;;16.70;8.63;;;;;;;-5.66;88.73;98499.06;5013845;28;20107;-59
2021/11/23 06:58:25;;;;;;;14.73;7.60;;;;;;;-5.68;89.07;98503.59;5024899;28;20041;-60
2021/11/23 07:00:51;;;;;;;16.20;8.77;;;;;;;-5.69;88.79;98507.22;5022953;28;20120;-60
2021/11/23 07:03:18;;;;;;;15.75;8.32;;;;;;;-5.61;89.31;98506.59;5022930;28;20076;-60
2021/11/23 07:05:45;;;;;;;17.92;8.55;;;;;;;-5.50;89.47;98517.16;5024327;28;20076;-60
2021/11/23 07:08:25;;;;;;;26.38;14.07;;;;;;;-5.67;88.28;98515.88;5024566;28;20049;-59
2021/11/23 07:10:52;;;;;;;26.60;16.20;;;;;;;-5.72;88.77;98512.72;5005739;28;20044;-60
2021/11/23 07:13:19;;;;;;;18.25;7.82;;;;;;;-5.53;89.34;98513.94;5016244;28;20049;-60
2021/11/23 07:15:46;;;;;;;22.30;10.90;;;;;;;-5.49;88.65;98518.84;5007352;28;20045;-60
2021/11/23 07:18:14;;;;;;;18.25;9.98;;;;;;;-5.45;88.88;98519.44;5009816;28;20041;-60
2021/11/23 07:20:40;;;;;;;21.83;13.85;;;;;;;-5.48;88.73;98520.50;5019630;28;20077;-61
2021/11/23 07:23:07;;;;;;;22.42;11.50;;;;;;;-5.43;88.49;98519.31;5007004;28;20053;-60
2021/11/23 07:25:34;;;;;;;17.92;9.90;;;;;;;-5.39;88.50;98516.31;5021039;28;20531;-59
2021/11/23 07:28:00;;;;;;;21.70;11.38;;;;;;;-5.36;88.21;98520.50;5006808;28;20104;-61
2021/11/23 07:30:27;;;;;;;18.83;10.98;;;;;;;-5.34;88.49;98523.88;5023316;28;20774;-59
2021/11/23 07:32:53;;;;;;;19.52;10.95;;;;;;;-5.32;88.63;98529.03;5026046;28;20048;-60
2021/11/23 07:35:20;;;;;;;18.15;10.70;;;;;;;-5.24;87.81;98531.88;5016097;28;20041;-59
2021/11/23 07:37:47;;;;;;;24.23;12.73;;;;;;;-5.24;88.42;98526.59;5017662;28;20436;-53
2021/11/23 07:40:15;;;;;;;23.63;11.50;;;;;;;-5.19;88.56;98534.19;5020100;28;20052;-53
2021/11/23 07:42:43;;;;;;;19.00;11.77;;;;;;;-5.13;88.79;98531.03;5021181;28;20046;-52
2021/11/23 07:45:30;;;;;;;19.63;11.75;;;;;;;-5.13;88.67;98531.88;5016896;28;20041;-52
2021/11/23 07:47:56;;;;;;;21.15;11.65;;;;;;;-5.09;88.40;98535.97;5023596;28;20033;-50
2021/11/23 07:50:23;;;;;;;25.02;10.70;;;;;;;-4.92;89.21;98535.56;5023284;28;20612;-48
2021/11/23 07:52:49;;;;;;;19.92;11.23;;;;;;;-4.74;88.67;98542.00;5016358;28;20116;-49
2021/11/23 07:55:16;;;;;;;29.35;13.18;;;;;;;-4.61;88.14;98546.28;5018856;28;20045;-50
2021/11/23 07:57:43;;;;;;;20.02;11.07;;;;;;;-4.62;87.76;98545.44;5023240;28;20056;-50
2021/11/23 08:00:10;;;;;;;15.63;9.70;;;;;;;-4.65;87.10;98539.56;5023969;28;20045;-49
2021/11/23 08:02:40;;;;;;;18.15;9.95;;;;;;;-4.68;88.46;98550.41;5024019;28;20049;-52
2021/11/23 08:05:07;;;;;;;22.13;11.82;;;;;;;-4.74;88.02;98554.38;5019349;28;20049;-48
2021/11/23 08:07:34;;;;;;;22.85;10.80;;;;;;;-4.79;88.49;98545.97;5023421;28;20042;-52
2021/11/23 08:10:01;;;;;;;20.30;11.38;;;;;;;-4.70;89.36;98554.00;5021457;28;20056;-54
2021/11/23 08:12:27;;;;;;;18.65;10.40;;;;;;;-4.54;89.40;98551.91;5022831;28;20045;-54
2021/11/23 08:14:54;;;;;;;26.90;13.50;;;;;;;-4.45;89.15;98551.16;5016619;28;20042;-52
2021/11/23 08:17:21;;;;;;;20.75;12.23;;;;;;;-4.47;88.49;98558.34;5005739;28;20058;-55
2021/11/23 08:19:48;;;;;;;21.05;11.23;;;;;;;-4.45;89.09;98559.09;5006061;28;20046;-53
2021/11/23 08:22:14;;;;;;;19.83;10.70;;;;;;;-4.32;89.64;98562.38;5017759;28;20520;-50
2021/11/23 08:24:41;;;;;;;31.17;18.25;;;;;;;-4.13;89.63;98566.13;5025173;28;20041;-50
2021/11/23 08:27:09;;;;;;;30.52;17.20;;;;;;;-4.04;89.43;98572.47;5025746;28;20073;-50
2021/11/23 08:29:35;;;;;;;20.83;11.60;;;;;;;-4.00;88.99;98570.41;5022050;28;20060;-54
2021/11/23 08:32:03;;;;;;;26.80;13.48;;;;;;;-3.85;89.71;98569.13;5019640;28;20623;-49
2021/11/23 08:34:31;;;;;;;20.25;11.95;;;;;;;-3.81;89.39;98572.34;5010288;28;20087;-51
2021/11/23 08:36:57;;;;;;;17.23;9.00;;;;;;;-3.87;88.27;98578.97;5014722;28;20057;-53
2021/11/23 08:39:24;;;;;;;18.23;9.30;;;;;;;-3.77;89.34;98570.28;5023603;28;20592;-49
2021/11/23 08:41:51;;;;;;;31.95;15.48;;;;;;;-3.57;90.07;98566.75;5023887;28;20052;-49
2021/11/23 08:44:17;;;;;;;50.80;22.38;;;;;;;-3.48;89.73;98566.94;5010373;28;20053;-52
2021/11/23 08:46:44;;;;;;;22.40;12.48;;;;;;;-3.37;89.84;98564.19;5016060;28;20512;-50
2021/11/23 08:49:11;;;;;;;55.15;24.58;;;;;;;-3.10;89.46;98570.72;5025408;28;20056;-49
2021/11/23 08:51:39;;;;;;;31.88;18.13;;;;;;;-3.09;89.85;98559.16;5025339;28;20506;-48
2021/11/23 08:54:06;;;;;;;45.05;21.80;;;;;;;-2.84;90.03;98567.56;5025922;28;20045;-51
2021/11/23 08:56:38;;;;;;;43.83;18.77;;;;;;;-2.74;88.78;98564.94;5025362;28;20041;-50
2021/11/23 08:59:14;;;;;;;76.40;33.50;;;;;;;-2.22;87.49;98564.72;5025943;28;20029;-53
2021/11/23 09:01:42;;;;;;;23.42;13.13;;;;;;;-2.13;86.47;98562.19;5025350;28;20053;-54
2021/11/23 09:04:09;;;;;;;18.80;10.80;;;;;;;-2.06;85.19;98559.81;5024788;28;20107;-52
2021/11/23 09:06:38;;;;;;;18.48;10.88;;;;;;;-2.03;85.62;98559.53;5025971;28;20045;-51
2021/11/23 09:09:08;;;;;;;19.63;10.27;;;;;;;-1.99;84.90;98564.41;5028995;28;20681;-55
2021/11/23 09:11:36;;;;;;;16.70;9.23;;;;;;;-1.81;84.48;98565.50;5009373;28;20045;-53
2021/11/23 09:14:04;;;;;;;16.80;10.15;;;;;;;-1.65;85.48;98564.91;5009694;28;20613;-55
2021/11/23 09:16:34;;;;;;;17.80;10.32;;;;;;;-1.60;84.13;98574.13;5009044;28;20132;-55
2021/11/23 09:19:03;;;;;;;14.20;8.15;;;;;;;-1.51;83.39;98575.06;5009329;28;20133;-55
2021/11/23 09:21:29;;;;;;;14.57;9.45;;;;;;;-1.38;83.14;98577.41;5014671;28;20049;-51
2021/11/23 09:23:56;;;;;;;15.88;9.60;;;;;;;-1.39;83.06;98574.88;5027670;28;20183;-52
2021/11/23 09:26:23;;;;;;;17.58;9.38;;;;;;;-1.39;83.28;98575.75;5026880;28;20054;-53
2021/11/23 09:28:50;;;;;;;17.80;10.75;;;;;;;-1.26;83.83;98569.25;5026402;28;20049;-54
2021/11/23 09:31:17;;;;;;;15.60;8.77;;;;;;;-1.24;82.62;98577.91;5026473;28;20056;-54
2021/11/23 09:33:45;;;;;;;14.73;9.55;;;;;;;-1.16;83.27;98562.06;5026564;28;20655;-51
2021/11/23 09:36:11;;;;;;;15.98;9.23;;;;;;;-1.11;83.42;98572.28;5026961;28;20049;-55
2021/11/23 09:38:41;;;;;;;17.05;9.23;;;;;;;-1.07;83.42;98568.34;5026909;28;20064;-55
2021/11/23 09:41:08;;;;;;;16.08;8.98;;;;;;;-1.04;82.31;98565.38;5024991;28;20115;-55
2021/11/23 09:43:36;;;;;;;19.25;9.80;;;;;;;-0.99;81.58;98576.38;5026616;28;20049;-55
2021/11/23 09:46:03;;;;;;;16.80;9.00;;;;;;;-0.91;81.69;98559.72;5026170;28;20037;-50
2021/11/23 09:48:30;;;;;;;15.40;9.30;;;;;;;-0.82;81.27;98568.59;5026269;28;20509;-51
2021/11/23 09:50:57;;;;;;;18.67;10.10;;;;;;;-0.74;80.65;98559.91;5024950;28;20091;-53
2021/11/23 09:53:24;;;;;;;13.55;8.68;;;;;;;-0.72;81.18;98558.75;5027434;28;20060;-55
2021/11/23 09:55:53;;;;;;;14.90;9.00;;;;;;;-0.67;81.31;98560.94;5028104;28;20041;-55
2021/11/23 09:58:21;;;;;;;14.23;8.55;;;;;;;-0.61;81.11;98567.50;5027987;28;20041;-55
2021/11/23 10:00:49;;;;;;;15.70;9.27;;;;;;;-0.56;81.68;98558.09;5028195;28;20052;-53
2021/11/23 10:03:27;;;;;;;12.20;7.97;;;;;;;-0.47;80.45;98555.50;5028039;28;20049;-54
2021/11/23 10:06:26;;;;;;;12.65;8.40;;;;;;;-0.35;79.71;98548.13;5028192;28;20065;-55
2021/11/23 10:08:56;;;;;;;13.20;7.45;;;;;;;-0.27;78.76;98551.72;4984345;28;20421;-54
2021/11/23 10:11:24;;;;;;;13.75;8.43;;;;;;;-0.24;78.39;98553.22;5008679;28;20059;-55
2021/11/23 10:13:55;;;;;;;12.68;7.88;;;;;;;-0.16;78.65;98547.97;5008272;28;20042;-54
2021/11/23 10:16:23;;;;;;;13.70;7.82;;;;;;;-0.12;77.96;98547.66;5022286;28;20056;-53
2021/11/23 10:18:52;;;;;;;13.48;8.68;;;;;;;-0.08;78.26;98547.19;5022800;28;20046;-51
2021/11/23 10:21:24;;;;;;;15.52;8.82;;;;;;;-0.09;77.93;98547.34;5025727;28;20890;-54
2021/11/23 10:23:52;;;;;;;10.57;7.68;;;;;;;0.01;78.59;98541.94;5025455;28;20111;-55
2021/11/23 10:26:26;;;;;;;17.15;8.73;;;;;;;-0.02;77.65;98551.91;5022177;28;20049;-54
2021/11/23 10:28:57;;;;;;;10.85;6.97;;;;;;;0.11;77.57;98542.69;5017775;28;20042;-55
2021/11/23 10:31:30;;;;;;;12.60;7.33;;;;;;;0.20;77.13;98543.56;5018538;28;20049;-55
2021/11/23 10:33:59;;;;;;;11.35;6.82;;;;;;;0.27;77.01;98543.78;5020546;28;20050;-54
2021/11/23 10:36:31;;;;;;;13.32;7.75;;;;;;;0.32;76.36;98542.31;5022579;28;20045;-54
2021/11/23 10:39:25;;;;;;;12.07;8.45;;;;;;;0.35;76.25;98539.34;5026879;28;20049;-52
2021/11/23 10:41:57;;;;;;;13.98;7.55;;;;;;;0.40;76.35;98538.03;5020722;28;20064;-53
2021/11/23 10:44:29;;;;;;;15.18;7.97;;;;;;;0.44;75.50;98528.75;5021731;28;20038;-54
2021/11/23 10:46:59;;;;;;;12.38;8.00;;;;;;;0.53;76.38;98527.78;5016755;28;20034;-55
2021/11/23 10:49:32;;;;;;;15.00;7.93;;;;;;;0.55;75.44;98523.13;5023495;28;20049;-54
2021/11/23 10:52:00;;;;;;;14.35;7.05;;;;;;;0.61;75.50;98519.84;5021973;28;20077;-53
2021/11/23 10:54:31;;;;;;;11.70;7.78;;;;;;;0.64;74.92;98527.53;5024688;28;20056;-53
2021/11/23 10:57:04;;;;;;;11.40;7.28;;;;;;;0.67;74.35;98517.53;5025529;28;20084;-55
2021/11/23 10:59:37;;;;;;;13.30;7.78;;;;;;;0.75;75.06;98520.22;5017777;28;20038;-54
2021/11/23 11:02:03;;;;;;;10.15;6.68;;;;;;;0.77;75.02;98519.06;5022090;28;20067;-53
2021/11/23 11:04:37;;;;;;;15.02;7.10;;;;;;;0.82;74.09;98521.25;5025391;28;20038;-51
2021/11/23 11:07:04;;;;;;;;;;;;;;;0.94;73.72;98524.47;5024407;28;20049;-54
2021/11/23 11:09:31;;;;;;;14.52;6.32;;;;;;;0.97;74.63;98525.97;5017224;28;19929;-52
2021/11/23 11:11:58;;;;;;;12.32;6.45;;;;;;;0.97;73.52;98515.31;5025372;28;20511;-53
2021/11/23 11:14:25;;;;;;;10.68;6.18;;;;;;;0.99;72.00;98514.13;5024918;28;20037;-51
2021/11/23 11:16:52;;;;;;;10.65;5.85;;;;;;;1.02;73.79;98515.66;5024900;28;20049;-54
2021/11/23 11:19:20;;;;;;;11.63;6.85;;;;;;;1.02;73.78;98513.81;5024310;28;20449;-49
2021/11/23 11:21:46;;;;;;;8.98;5.78;;;;;;;1.09;72.91;98511.34;5024383;28;20057;-48
2021/11/23 11:24:27;;;;;;;9.57;5.63;;;;;;;1.16;73.30;98511.53;5026435;28;20075;-51
2021/11/23 11:27:10;;;;;;;10.68;6.43;;;;;;;1.27;72.85;98505.88;5024083;28;20046;-52
2021/11/23 11:29:37;;;;;;;10.73;6.10;;;;;;;1.33;73.20;98504.41;5015978;28;20042;-51